• Join FlightAware (Why Join?)
  • Login
  • US Flag 
11:33PM EDT


 

Airport Tracker/Info


-or-


 

Live Flight TrackerFlight Track Log ✈ SKW6526 ✈ 28-Apr-2013 ✈ KLAX - KPHX

Flight Track Log - Related Links

Times and Time Zones

All times are in EDT time to prevent confusion due to time zone crossing. See the SKW6526 flight status page for this flight to view local times or setup timezone preferences in your user account.

Time Position Orientation Groundspeed Altitude Reporting Facility
EDT Latitude Longitude Course Direction KTS MPH feet Rate Location/Type
11:34AM 33.9317 -118.4442 90° East 178 205 1,700  Level Los Angeles Center
11:35AM 33.8847 -118.5183 233° Southwest 261 300 3,900 2,640 Climbing Los Angeles Center
11:36AM 33.8131 -118.5564 204° Southwest 273 314 7,200 2,940 Climbing Los Angeles Center
11:37AM 33.6941 -118.5302 134° Southeast  Level FlightAware Approximate
11:37AM 33.7356 -118.5339 166° South 288 331 10,000  Level Los Angeles Center
11:38AM 33.6586 -118.3966 116° Southeast  Level FlightAware Approximate
11:38AM 33.6794 -118.4642 134° Southeast 321 369 12,000  Level Los Angeles Center
11:39AM 33.6334 -118.2605 90° East  Level FlightAware Approximate
11:40AM 33.6333 -118.1176 90° East  Level FlightAware Approximate
11:40AM 33.6722 -118.3567 95° East 329 379 14,200  Level Los Angeles Center
11:41AM 33.6725 -118.2228 90° East 345 397 17,000 2,220 Climbing Los Angeles Center
11:42AM 33.6711 -118.1042 91° East 354 407 18,800 1,620 Climbing Los Angeles Center
11:43AM 33.6697 -118.0044 91° East 367 422 20,400 1,800 Climbing Los Angeles Center
11:44AM 33.6675 -117.8497 91° East 385 443 22,600 1,740 Climbing Los Angeles Center
11:45AM 33.6658 -117.7450 91° East 391 450 24,000 1,140 Climbing Los Angeles Center
11:46AM 33.6628 -117.5586 91° East 399 459 25,000 480 Climbing Los Angeles Center
11:47AM 33.6600 -117.4250 91° East 401 461 25,100 540 Climbing Los Angeles Center
11:48AM 33.6553 -117.2803 92° East 430 495 26,200 1,260 Climbing Los Angeles Center
11:49AM 33.6536 -117.1369 91° East 433 498 27,800 1,200 Climbing Los Angeles Center
11:50AM 33.6494 -116.9914 92° East 438 504 28,700 1,080 Climbing Los Angeles Center
11:51AM 33.6456 -116.8197 92° East 448 516 30,100 1,260 Climbing Los Angeles Center
11:52AM 33.6369 -116.6719 94° East 446 513 31,400 1,260 Climbing Los Angeles Center
11:53AM 33.6289 -116.5233 94° East 444 511 32,800 1,200 Climbing Los Angeles Center
11:54AM 33.6194 -116.3767 94° East 441 507 34,000 960 Climbing Los Angeles Center
11:55AM 33.6111 -116.2283 94° East 445 512 34,800 480 Climbing Los Angeles Center
11:56AM 33.6011 -116.0753 94° East 456 525 35,000 60 Climbing Los Angeles Center
11:57AM 33.5892 -115.8886 94° East 465 535 35,000  Level Los Angeles Center
11:58AM 33.5792 -115.7339 94° East 466 536 35,000  Level Los Angeles Center
11:59AM 33.5683 -115.5531 94° East 456 525 35,000  Level Los Angeles Center
12:00PM 33.5578 -115.4058 95° East 447 514 35,000  Level Los Angeles Center
12:01PM 33.5494 -115.2867 95° East 447 514 35,000  Level Los Angeles Center
12:02PM 33.5372 -115.1106 95° East 443 510 35,000  Level Los Angeles Center
12:03PM 33.5264 -114.9644 95° East 441 507 35,000 -60 Level Los Angeles Center
12:05PM 33.5153 -114.7867 94° East 445 512 34,900 -960 Descending Los Angeles Center
12:06PM 33.5036 -114.6358 95° East 457 526 33,100 -2,040 Descending Los Angeles Center
12:06PM 33.4961 -114.5164 94° East 467 537 31,100 -2,820 Descending Albuquerque Center
12:07PM 33.4836 -114.3278 94° East 471 542 27,800 -2,760 Descending Albuquerque Center
12:09PM 33.4731 -114.1797 95° East 455 524 25,500 -1,380 Descending Albuquerque Center
12:10PM 33.4583 -114.0494 98° East 422 486 25,000 -300 Descending Albuquerque Center
12:11PM 33.4303 -113.9217 105° East 407 468 25,000 -480 Level Albuquerque Center
12:12PM 33.4033 -113.7908 104° East 405 466 24,100 -1,200 Descending Albuquerque Center
12:13PM 33.3789 -113.6633 103° East 401 461 22,600 -1,680 Descending Albuquerque Center
12:14PM 33.3492 -113.5178 104° East 388 447 20,700 -1,740 Descending Albuquerque Center
12:15PM 33.3239 -113.3961 104° East 383 441 19,100 -1,500 Descending Albuquerque Center
12:16PM 33.3003 -113.2806 104° East 372 428 17,700 -1,080 Descending Albuquerque Center
12:17PM 33.2786 -113.1708 103° East 349 402 16,900 -1,020 Descending Albuquerque Center
12:18PM 33.2758 -113.0619 92° East 332 382 15,700 -1,440 Descending Albuquerque Center
12:19PM 33.2775 -112.9525 89° East 330 380 14,000 -1,620 Descending Albuquerque Center
12:20PM 33.2803 -112.8511 88° East 314 361 12,400 -1,680 Descending Albuquerque Center
12:21PM 33.3106 -112.7431 71° East 293 337 10,600 -1,200 Descending Albuquerque Center
12:22PM 33.3394 -112.6603 67° East 276 318 9,900 -900 Descending Albuquerque Center
12:23PM 33.3697 -112.5844 64° Northeast 266 306 8,800 -960 Descending Albuquerque Center
12:24PM 33.3867 -112.5000 76° East 262 302 8,000 -720 Descending Albuquerque Center
12:25PM 33.3989 -112.4203 80° East 247 284 7,400 -1,020 Descending Albuquerque Center
12:26PM 33.4131 -112.3239 80° East 247 284 5,900 -1,380 Descending Albuquerque Center
12:27PM 33.4253 -112.2456 79° East 241 277 4,600 -1,140 Descending Albuquerque Center
12:28PM 33.4372 -112.1719 79° East 229 264 3,600 -960 Descending Albuquerque Center
12:29PM 33.4406 -112.1111 86° East 190 219 2,700 -900 Descending Albuquerque Center